createdAt,value
2018-06-08T00:01:05.045Z,96783.28
2018-06-08T00:05:59.602Z,96773.38
2018-06-08T00:10:54.550Z,96760.95
2018-06-08T00:15:49.115Z,96751.77
2018-06-08T00:20:43.681Z,96742.30
2018-06-08T00:25:38.230Z,96733.05
2018-06-08T00:30:32.774Z,96730.70
2018-06-08T00:35:27.375Z,96722.96
2018-06-08T00:40:21.930Z,96727.31
2018-06-08T00:45:16.493Z,96729.28
2018-06-08T00:50:11.061Z,96721.72
2018-06-08T00:55:05.882Z,96711.38
2018-06-08T01:00:00.411Z,96708.94
2018-06-08T01:04:54.996Z,96709.28
2018-06-08T01:09:49.530Z,96697.66
2018-06-08T01:14:44.109Z,96699.88
2018-06-08T01:19:38.831Z,96693.70
2018-06-08T01:24:33.995Z,96689.50
2018-06-08T01:29:28.550Z,96682.66
2018-06-08T01:34:23.132Z,96694.41
2018-06-08T01:39:17.697Z,96706.94
2018-06-08T01:44:12.258Z,96711.75
2018-06-08T01:49:06.882Z,96721.75
2018-06-08T01:54:01.404Z,96732.69
2018-06-08T01:58:56.007Z,96726.55
2018-06-08T02:03:50.557Z,96733.54
2018-06-08T02:08:45.070Z,96743.00
2018-06-08T02:13:39.602Z,96746.78
2018-06-08T02:18:34.123Z,96742.15
2018-06-08T02:23:28.709Z,96745.33
2018-06-08T02:28:23.272Z,96741.83
2018-06-08T02:33:17.814Z,96751.45
2018-06-08T02:38:12.397Z,96761.08
2018-06-08T02:43:06.941Z,96769.87
2018-06-08T02:48:01.504Z,96766.05
2018-06-08T02:52:56.031Z,96760.25
2018-06-08T02:57:50.586Z,96758.87
2018-06-08T03:02:45.120Z,96763.38
2018-06-08T03:07:39.661Z,96761.73
2018-06-08T03:12:34.210Z,96750.26
2018-06-08T03:17:28.769Z,96740.86
2018-06-08T03:22:23.304Z,96745.30
2018-06-08T03:27:17.935Z,96748.14
2018-06-08T03:32:12.487Z,96744.66
2018-06-08T03:37:07.047Z,96734.17
2018-06-08T03:42:01.570Z,96732.56
2018-06-08T03:46:56.119Z,96734.22
2018-06-08T03:51:50.661Z,96737.69
2018-06-08T03:56:48.526Z,96734.84
2018-06-08T04:01:43.077Z,96732.16
2018-06-08T04:06:37.683Z,96728.65
2018-06-08T04:11:32.329Z,96724.06
2018-06-08T04:16:26.889Z,96727.76
2018-06-08T04:21:21.475Z,96726.22
2018-06-08T04:26:16.059Z,96735.64
2018-06-08T04:31:10.623Z,96733.27
2018-06-08T04:36:06.524Z,96739.68
2018-06-08T04:41:01.161Z,96751.78
2018-06-08T04:45:55.703Z,96749.47
2018-06-08T04:50:50.307Z,96762.39
2018-06-08T04:55:44.537Z,96773.17
2018-06-08T05:00:39.083Z,96788.69
2018-06-08T05:05:33.619Z,96802.83
2018-06-08T05:10:28.167Z,96802.19
2018-06-08T05:15:22.703Z,96797.56
2018-06-08T05:20:17.279Z,96809.20
2018-06-08T05:25:11.822Z,96816.36
2018-06-08T05:30:13.519Z,96807.36
2018-06-08T05:35:08.107Z,96806.82
2018-06-08T05:40:02.678Z,96807.20
2018-06-08T05:44:56.916Z,96808.31
2018-06-08T05:49:51.459Z,96795.30
2018-06-08T05:54:46.012Z,96798.58
2018-06-08T05:59:40.577Z,96799.45
2018-06-08T06:04:35.103Z,96806.30
2018-06-08T06:09:29.665Z,96798.95
2018-06-08T06:14:24.216Z,96792.17
2018-06-08T06:19:18.738Z,96793.42
2018-06-08T06:24:13.286Z,96787.27
2018-06-08T06:34:01.343Z,96788.61
2018-06-08T06:38:55.942Z,96785.36
2018-06-08T06:43:50.511Z,96777.90
2018-06-08T06:48:45.231Z,96776.61
2018-06-08T06:53:39.828Z,96768.28
2018-06-08T06:58:34.431Z,96760.82
2018-06-08T07:03:29.028Z,96755.99
2018-06-08T07:08:23.559Z,96766.94
2018-06-08T07:13:18.074Z,96747.35
2018-06-08T07:18:12.641Z,96746.72
2018-06-08T07:23:07.174Z,96734.55
2018-06-08T07:28:01.759Z,96731.17
2018-06-08T07:32:56.286Z,96724.73
2018-06-08T07:37:50.864Z,96725.89
2018-06-08T07:42:45.416Z,96731.34
2018-06-08T07:47:40.008Z,96725.25
2018-06-08T07:52:34.593Z,96723.62
2018-06-08T07:57:29.165Z,96721.36
2018-06-08T08:02:23.710Z,96721.13
2018-06-08T08:07:18.475Z,96716.95
2018-06-08T08:12:12.986Z,96708.48
2018-06-08T08:17:07.566Z,96722.16
2018-06-08T08:22:02.144Z,96729.08
2018-06-08T08:26:56.633Z,96727.11
2018-06-08T08:31:51.135Z,96723.19
2018-06-08T08:36:45.716Z,96720.61
2018-06-08T08:41:40.284Z,96721.05
2018-06-08T08:46:34.870Z,96722.80
2018-06-08T08:51:29.484Z,96725.13
2018-06-08T08:56:23.955Z,96718.41
2018-06-08T09:01:18.490Z,96717.30
2018-06-08T09:06:13.023Z,96717.36
2018-06-08T09:11:07.609Z,96709.59
2018-06-08T09:16:02.177Z,96712.20
2018-06-08T09:20:56.662Z,96702.05
2018-06-08T09:25:51.181Z,96698.63
2018-06-08T09:30:45.676Z,96696.29
2018-06-08T09:35:40.180Z,96694.73
2018-06-08T09:40:34.697Z,96685.21
2018-06-08T09:45:29.225Z,96684.61
2018-06-08T09:50:24.826Z,96672.81
2018-06-08T09:55:19.385Z,96666.16
2018-06-08T10:00:18.003Z,96656.94
2018-06-08T10:05:12.592Z,96661.55
2018-06-08T10:10:07.105Z,96655.13
2018-06-08T10:15:01.611Z,96648.81
2018-06-08T10:19:56.117Z,96640.31
2018-06-08T10:24:50.651Z,96637.55
2018-06-08T10:29:45.202Z,96625.78
2018-06-08T10:34:39.710Z,96625.88
2018-06-08T10:39:34.220Z,96623.64
2018-06-08T10:44:28.754Z,96617.23
2018-06-08T10:49:23.314Z,96612.03
2018-06-08T10:54:17.861Z,96606.46
2018-06-08T10:59:12.364Z,96597.61
2018-06-08T11:04:06.985Z,96593.08
2018-06-08T11:09:01.523Z,96592.86
2018-06-08T11:13:56.085Z,96577.23
2018-06-08T11:18:50.600Z,96566.64
2018-06-08T11:23:45.145Z,96557.74
2018-06-08T11:28:39.658Z,96546.63
2018-06-08T11:33:34.197Z,96544.05
2018-06-08T11:38:28.722Z,96535.47
2018-06-08T11:43:23.214Z,96531.47
2018-06-08T11:48:17.762Z,96515.69
2018-06-08T11:53:12.298Z,96514.43
2018-06-08T11:58:06.834Z,96515.48
2018-06-08T12:03:01.367Z,96507.58
2018-06-08T12:07:55.880Z,96502.97
2018-06-08T12:12:50.388Z,96506.16
2018-06-08T12:17:44.950Z,96494.91
2018-06-08T12:22:39.561Z,96491.18
2018-06-08T12:27:34.086Z,96492.09
2018-06-08T12:32:28.643Z,96481.63
2018-06-08T12:37:23.183Z,96480.66
2018-06-08T12:42:17.727Z,96472.77
2018-06-08T12:47:12.330Z,96467.56
2018-06-08T12:52:06.914Z,96448.94
2018-06-08T12:57:01.487Z,96441.50
2018-06-08T13:01:56.064Z,96434.50
2018-06-08T13:06:50.671Z,96422.36
2018-06-08T13:11:45.243Z,96413.41
2018-06-08T13:16:39.819Z,96410.83
2018-06-08T13:21:34.451Z,96403.78
2018-06-08T13:26:29.026Z,96394.36
2018-06-08T13:31:23.574Z,96394.33
2018-06-08T13:36:18.192Z,96403.50
2018-06-08T13:41:12.764Z,96398.28
2018-06-08T13:46:23.881Z,96395.42
2018-06-08T13:51:18.542Z,96402.18
2018-06-08T13:56:13.127Z,96395.28
2018-06-08T14:01:07.734Z,96386.48
2018-06-08T14:06:02.279Z,96368.06
2018-06-08T14:10:56.839Z,96353.62
2018-06-08T14:15:51.454Z,96349.47
2018-06-08T14:20:46.001Z,96348.50
2018-06-08T14:25:40.595Z,96345.55
2018-06-08T14:30:35.202Z,96343.06
2018-06-08T14:35:29.763Z,96346.62
2018-06-08T14:40:24.335Z,96352.06
2018-06-08T14:45:19.009Z,96367.55
2018-06-08T14:50:13.615Z,96377.52
2018-06-08T14:55:08.268Z,96371.88
2018-06-08T15:00:02.908Z,96409.48
2018-06-08T15:04:57.567Z,96429.16
2018-06-08T15:09:52.286Z,96402.52
2018-06-08T15:14:46.854Z,96413.44
2018-06-08T15:19:41.585Z,96423.76
2018-06-08T15:24:38.475Z,96437.00
2018-06-08T15:29:33.030Z,96425.87
2018-06-08T15:34:27.696Z,96404.67
2018-06-08T15:39:22.524Z,96413.44
2018-06-08T15:44:17.150Z,96444.93
2018-06-08T15:49:11.787Z,96451.80
2018-06-08T15:54:06.389Z,96435.41
2018-06-08T15:59:01.002Z,96453.11
2018-06-08T16:03:55.684Z,96507.07
2018-06-08T16:08:50.420Z,96523.48
2018-06-08T16:13:46.059Z,96546.09
2018-06-08T16:18:40.850Z,96561.33
2018-06-08T16:23:35.485Z,96556.56
2018-06-08T16:28:30.173Z,96560.14
2018-06-08T16:33:24.827Z,96575.88
2018-06-08T16:38:19.515Z,96584.41
2018-06-08T16:43:14.266Z,96591.28
2018-06-08T16:48:09.058Z,96587.45
2018-06-08T16:53:04.015Z,96590.73
2018-06-08T16:57:58.854Z,96581.92
2018-06-08T17:02:53.738Z,96571.53
2018-06-08T17:07:48.632Z,96565.33
2018-06-08T17:12:43.648Z,96557.58
2018-06-08T17:17:38.689Z,96567.03
2018-06-08T17:22:33.697Z,96574.70
2018-06-08T17:27:31.869Z,96589.72
2018-06-08T17:32:27.102Z,96593.41
2018-06-08T17:37:22.680Z,96586.96
2018-06-08T17:42:46.132Z,96582.36
2018-06-08T17:48:04.794Z,96576.36
2018-06-08T17:52:59.965Z,96579.73
2018-06-08T17:58:01.707Z,96584.67
2018-06-08T18:02:56.938Z,96590.11
2018-06-08T18:07:52.098Z,96588.86
2018-06-08T18:12:47.093Z,96600.56
2018-06-08T18:18:06.298Z,96607.52
2018-06-08T18:23:01.551Z,96607.03
2018-06-08T18:27:57.033Z,96591.03
2018-06-08T18:33:05.504Z,96587.78
2018-06-08T18:38:05.169Z,96576.24
2018-06-08T18:43:16.809Z,96571.35
2018-06-08T18:53:36.296Z,96587.81
2018-06-08T18:58:31.535Z,96610.70
2018-06-08T19:03:32.616Z,96620.34
2018-06-08T19:08:42.463Z,96624.61
2018-06-08T19:13:41.977Z,96632.72
2018-06-08T19:18:37.104Z,96638.74
2018-06-08T19:23:32.272Z,96640.09
2018-06-08T19:28:27.352Z,96652.16
2018-06-08T19:33:22.659Z,96666.45
2018-06-08T19:38:17.875Z,96670.01
2018-06-08T19:43:12.995Z,96670.77
2018-06-08T19:48:09.483Z,96670.11
2018-06-08T19:53:04.649Z,96679.08
2018-06-08T19:57:59.885Z,96681.29
2018-06-08T20:02:54.962Z,96693.59
2018-06-08T20:07:50.136Z,96692.89
2018-06-08T20:12:45.477Z,96691.72
2018-06-08T20:17:40.648Z,96690.73
2018-06-08T20:22:35.707Z,96685.09
2018-06-08T20:27:32.064Z,96676.22
2018-06-08T20:32:26.969Z,96672.80
2018-06-08T20:37:21.926Z,96678.41
2018-06-08T20:42:17.087Z,96664.91
2018-06-08T20:47:11.872Z,96672.70
2018-06-08T20:52:06.936Z,96667.41
2018-06-08T20:57:19.244Z,96674.31
2018-06-08T21:02:14.308Z,96678.17
2018-06-08T21:07:09.104Z,96686.10
2018-06-08T21:12:04.140Z,96697.38
2018-06-08T21:16:59.076Z,96704.77
2018-06-08T21:21:54.028Z,96714.92
2018-06-08T21:26:49.031Z,96708.78
2018-06-08T21:31:44.150Z,96709.72
2018-06-08T21:36:54.562Z,96711.64
2018-06-08T21:41:49.631Z,96712.81
2018-06-08T21:46:44.549Z,96704.93
2018-06-08T21:51:39.542Z,96704.74
2018-06-08T21:56:34.466Z,96706.25
2018-06-08T22:01:29.575Z,96702.06
2018-06-08T22:11:49.468Z,96684.49
2018-06-08T22:16:44.589Z,96680.41
2018-06-08T22:21:39.502Z,96686.06
2018-06-08T22:26:34.503Z,96686.53
2018-06-08T22:31:29.608Z,96679.11
2018-06-08T22:36:25.740Z,96687.07
2018-06-08T22:41:24.516Z,96693.58
2018-06-08T22:51:38.848Z,96710.23
2018-06-08T22:56:33.985Z,96711.44
2018-06-08T23:01:28.914Z,96710.43
2018-06-08T23:06:23.804Z,96713.44
2018-06-08T23:11:18.829Z,96708.49
2018-06-08T23:16:13.764Z,96703.55
2018-06-08T23:21:08.720Z,96709.64
2018-06-08T23:26:03.812Z,96704.41
2018-06-08T23:30:58.835Z,96710.23
2018-06-08T23:35:53.859Z,96716.86
2018-06-08T23:40:48.869Z,96702.95
2018-06-08T23:45:43.842Z,96700.98
2018-06-08T23:50:38.916Z,96707.44
2018-06-08T23:55:33.831Z,96702.99
